Terminal Aerodrome Forecast
Issued by NWS Detroit/Pontiac, MI

Home | Current Version | Previous Version | Text Only | Print | Product List | Glossary On
Versions: 1 2 3 4 5 6 7 8 9 10 11 12 13 14 15 16 17 18 19 20 21 22 23 24 25
000
FTUS43 KDTX 270523
TAFDTW
TAF
KDTW 270523Z 2706/2812 21004KT P6SM SKC
     FM271600 25006KT P6SM SCT060
     FM280000 VRB03KT P6SM SCT050 BKN150 PROB30 2801/2803 5SM TSRA
      BKN045CB
     FM280600 05006KT P6SM BKN200=

USA.gov is the U.S. government's official web portal to all federal, state and local government web resources and services.